Bentley, MI (48613)

1:37 AM EST on December 04, 2016 (GMT -0500)
Pinconning farm country, (Pintucky Hawg Farm) | | Change Station

Elev 623 ft 43.82 °N, 84.03 °W | Updated 1 minute ago

Overcast
Overcast
34.7 °F
Feels Like 31 °F
N
4.0
Wind Variable Wind from SW

Today
High -- | Low -- °F
--% Chance of Precip.
Yesterday
High -- | Low -- °F
Precip. -- in
Pressure 30.26 in
Visibility 10.0 miles
Clouds Overcast 4000 ft
Windchill 31 °F
Dew Point 33 °F
Humidity 96%
Rainfall 0.00 in
Snow Depth Not available.
7:54 AM 4:58 PM
Waxing Crescent, 20% visible
METAR KIKW 040613Z AUTO 24003KT 10SM OVC040 02/M02 A3026 RMK AO2 T00181017
Pressure 30.26 in
Visibility 10.0 miles
Clouds Overcast 4000 ft
Windchill 31 °F
Dew Point 33 °F
Humidity 96%
Rainfall 0.00 in
Snow Depth Not available.
7:54 AM 4:58 PM
Waxing Crescent, 20% visible
METAR KIKW 040613Z AUTO 24003KT 10SM OVC040 02/M02 A3026 RMK AO2 T00181017

10-Day Weather Forecast

Almanac

Astronomy

Dec. 04, 2016 Rise Set
Actual Time
Civil Twilight
Nautical Twilight
Astronomical Twilight
Moon
Length of Visible Light
Length of Day
Tomorrow will be .
, % of the Moon is Illuminated

Today's Extremes

State Highs State Lows

Community

WunderPhotos

Upload Photos

1,955,588 photos uploaded!

WunderBlog® & News

Nearby

Air Quality

  Air Quality AQ Index Pollutant
Not available.

Snow Depth

Station Depth Elevation

Earthquake Activity

City Distance Mag. Time & Date
Minimum magnitude displayed is 2.5.

Coastal Water Temperatures

Place Temperature

Stations

Nearby Weather Stations

Station Location Temp. Windchill Dew Point Humidity Wind Precip. Elev Updated Type
                   

Watches & Warnings

There are currently no watches in effect.